createdAt,value
2019-03-06T00:01:27.691Z,86.06
2019-03-06T00:04:41.488Z,85.80
2019-03-06T00:07:55.181Z,85.61
2019-03-06T00:11:08.883Z,85.39
2019-03-06T00:14:22.374Z,85.24
2019-03-06T00:17:36.317Z,85.24
2019-03-06T00:20:49.888Z,85.00
2019-03-06T00:24:03.574Z,84.88
2019-03-06T00:27:17.023Z,84.87
2019-03-06T00:30:30.989Z,84.93
2019-03-06T00:33:44.457Z,84.94
2019-03-06T00:36:57.934Z,85.05
2019-03-06T00:40:20.050Z,85.33
2019-03-06T00:43:33.631Z,85.66
2019-03-06T00:46:47.450Z,85.35
2019-03-06T00:50:00.927Z,85.15
2019-03-06T00:53:14.384Z,84.90
2019-03-06T00:56:27.827Z,84.66
2019-03-06T00:59:41.924Z,84.96
2019-03-06T01:02:55.508Z,85.44
2019-03-06T01:06:09.788Z,85.35
2019-03-06T01:09:23.368Z,85.21
2019-03-06T01:12:37.227Z,85.17
2019-03-06T01:15:51.072Z,85.09
2019-03-06T01:19:04.746Z,85.69
2019-03-06T01:22:18.231Z,86.49
2019-03-06T01:25:32.075Z,87.27
2019-03-06T01:28:45.643Z,87.37
2019-03-06T01:31:59.448Z,87.62
2019-03-06T01:35:32.782Z,87.48
2019-03-06T01:39:02.018Z,87.09
2019-03-06T01:42:21.295Z,87.01
2019-03-06T01:45:35.375Z,86.83
2019-03-06T01:48:48.832Z,87.43
2019-03-06T01:52:02.406Z,87.70
2019-03-06T01:55:16.199Z,87.54
2019-03-06T01:58:29.978Z,87.65
2019-03-06T02:01:43.784Z,88.13
2019-03-06T02:04:57.240Z,88.15
2019-03-06T02:08:12.019Z,87.58
2019-03-06T02:11:25.945Z,87.15
2019-03-06T02:14:39.640Z,87.02
2019-03-06T02:17:53.113Z,87.58
2019-03-06T02:21:06.580Z,87.47
2019-03-06T02:24:20.583Z,88.78
2019-03-06T02:27:34.567Z,88.85
2019-03-06T02:30:48.126Z,89.14
2019-03-06T02:34:01.886Z,89.87
2019-03-06T02:37:15.459Z,90.39
2019-03-06T02:40:28.922Z,90.31
2019-03-06T02:43:42.685Z,90.80
2019-03-06T02:46:56.151Z,90.61
2019-03-06T02:50:10.640Z,90.48
2019-03-06T02:53:24.424Z,90.72
2019-03-06T02:56:37.896Z,90.12
2019-03-06T03:00:03.623Z,90.21
2019-03-06T03:03:33.450Z,90.36
2019-03-06T03:07:06.578Z,90.60
2019-03-06T03:10:20.386Z,91.20
2019-03-06T03:13:33.967Z,90.24
2019-03-06T03:16:47.443Z,89.21
2019-03-06T03:20:01.018Z,88.77
2019-03-06T03:23:14.489Z,89.18
2019-03-06T03:26:28.082Z,89.02
2019-03-06T03:29:41.544Z,88.64
2019-03-06T03:32:55.120Z,87.77
2019-03-06T03:36:08.952Z,87.76
2019-03-06T03:39:22.432Z,88.29
2019-03-06T03:42:36.333Z,88.82
2019-03-06T03:45:50.100Z,89.20
2019-03-06T03:49:03.775Z,89.01
2019-03-06T03:52:17.537Z,89.06
2019-03-06T03:55:31.267Z,89.21
2019-03-06T03:58:44.742Z,89.13
2019-03-06T04:01:58.582Z,89.20
2019-03-06T04:05:13.133Z,89.27
2019-03-06T04:08:26.973Z,88.95
2019-03-06T04:11:40.426Z,88.69
2019-03-06T04:14:53.914Z,88.81
2019-03-06T04:18:07.735Z,88.78
2019-03-06T04:21:21.211Z,88.68
2019-03-06T04:24:34.681Z,88.69
2019-03-06T04:27:48.430Z,88.95
2019-03-06T04:31:01.995Z,89.04
2019-03-06T04:34:15.965Z,88.59
2019-03-06T04:37:29.655Z,88.40
2019-03-06T04:40:43.260Z,88.45
2019-03-06T04:43:56.730Z,88.61
2019-03-06T04:47:10.303Z,88.59
2019-03-06T04:50:24.155Z,88.91
2019-03-06T04:53:37.607Z,88.61
2019-03-06T04:56:51.498Z,88.45
2019-03-06T05:00:06.515Z,88.16
2019-03-06T05:03:20.227Z,88.18
2019-03-06T05:06:33.993Z,88.25
2019-03-06T05:09:47.756Z,88.05
2019-03-06T05:13:01.208Z,88.20
2019-03-06T05:16:14.690Z,88.53
2019-03-06T05:19:28.723Z,88.24
2019-03-06T05:22:42.463Z,88.72
2019-03-06T05:25:55.927Z,89.27
2019-03-06T05:29:09.647Z,89.99
2019-03-06T05:32:33.771Z,90.54
2019-03-06T05:36:03.578Z,91.84
2019-03-06T05:39:17.035Z,92.41
2019-03-06T05:42:30.504Z,91.86
2019-03-06T05:45:44.408Z,91.83
2019-03-06T05:48:57.969Z,92.22
2019-03-06T05:52:11.868Z,93.52
2019-03-06T05:55:25.326Z,92.07
2019-03-06T05:58:39.152Z,92.13
2019-03-06T06:01:52.620Z,93.25
2019-03-06T06:05:08.722Z,93.01
2019-03-06T06:08:22.189Z,92.58
2019-03-06T06:11:35.648Z,91.61
2019-03-06T06:14:49.381Z,91.33
2019-03-06T06:18:03.252Z,91.67
2019-03-06T06:21:32.299Z,91.32
2019-03-06T06:24:46.012Z,91.34
2019-03-06T06:27:59.480Z,91.76
2019-03-06T06:31:13.334Z,92.05
2019-03-06T06:34:26.915Z,91.97
2019-03-06T06:37:40.384Z,91.77
2019-03-06T06:40:53.864Z,91.84
2019-03-06T06:44:07.325Z,91.30
2019-03-06T06:47:20.797Z,90.94
2019-03-06T06:50:34.459Z,90.73
2019-03-06T06:54:13.410Z,91.05
2019-03-06T06:57:54.375Z,90.79
2019-03-06T07:01:26.069Z,90.84
2019-03-06T07:05:17.127Z,91.02
2019-03-06T07:08:49.372Z,90.79
2019-03-06T07:12:09.473Z,91.01
2019-03-06T07:15:41.585Z,91.14
2019-03-06T07:19:09.380Z,90.76
2019-03-06T07:22:47.053Z,90.05
2019-03-06T07:26:07.709Z,89.06
2019-03-06T07:29:41.206Z,87.33
2019-03-06T07:33:13.279Z,86.53
2019-03-06T07:36:45.267Z,84.31
2019-03-06T07:40:05.562Z,83.52
2019-03-06T07:43:29.880Z,83.40
2019-03-06T07:46:50.977Z,81.95
2019-03-06T07:50:27.379Z,80.71
2019-03-06T07:54:08.304Z,81.51
2019-03-06T07:57:29.535Z,82.51
2019-03-06T08:00:43.114Z,84.09
2019-03-06T08:04:05.872Z,84.32
2019-03-06T08:07:19.453Z,84.01
2019-03-06T08:10:34.027Z,83.38
2019-03-06T08:14:10.750Z,83.73
2019-03-06T08:17:29.760Z,83.25
2019-03-06T08:21:15.304Z,82.34
2019-03-06T08:24:35.278Z,81.98
2019-03-06T08:27:48.750Z,81.63
2019-03-06T08:31:34.075Z,80.76
2019-03-06T08:34:47.639Z,80.50
2019-03-06T08:38:01.822Z,79.69
2019-03-06T08:41:15.287Z,77.88
2019-03-06T08:44:28.999Z,77.66
2019-03-06T08:48:14.651Z,74.94
2019-03-06T08:51:49.080Z,71.64
2019-03-06T08:55:12.519Z,67.55
2019-03-06T08:58:44.622Z,67.05
2019-03-06T09:02:15.102Z,67.63
2019-03-06T09:05:46.713Z,66.89
2019-03-06T09:09:18.446Z,66.75
2019-03-06T09:12:55.017Z,67.71
2019-03-06T09:16:28.367Z,68.00
2019-03-06T09:20:08.138Z,66.29
2019-03-06T09:23:42.671Z,65.06
2019-03-06T09:27:04.294Z,61.19
2019-03-06T09:30:31.383Z,62.90
2019-03-06T09:34:04.795Z,62.56
2019-03-06T09:37:43.790Z,61.44
2019-03-06T09:41:15.481Z,61.10
2019-03-06T09:44:37.185Z,59.18
2019-03-06T09:47:57.982Z,59.49
2019-03-06T09:51:30.267Z,58.67
2019-03-06T09:55:06.570Z,57.45
2019-03-06T09:58:33.675Z,56.83
2019-03-06T10:02:07.103Z,55.34
2019-03-06T10:05:33.988Z,57.70
2019-03-06T10:09:05.708Z,59.09
2019-03-06T10:12:28.544Z,59.62
2019-03-06T10:15:55.192Z,59.30
2019-03-06T10:19:30.418Z,57.77
2019-03-06T10:22:44.037Z,59.22
2019-03-06T10:25:57.695Z,60.12
2019-03-06T10:29:11.289Z,58.74
2019-03-06T10:32:24.906Z,59.61
2019-03-06T10:35:38.616Z,59.33
2019-03-06T10:38:52.330Z,58.90
2019-03-06T10:42:06.240Z,57.82
2019-03-06T10:45:20.926Z,58.27
2019-03-06T10:48:34.852Z,57.65
2019-03-06T10:51:48.483Z,57.36
2019-03-06T10:55:04.372Z,56.85
2019-03-06T10:58:17.960Z,58.47
2019-03-06T11:01:31.647Z,60.18
2019-03-06T11:04:53.053Z,60.76
2019-03-06T11:08:08.100Z,60.76
2019-03-06T11:11:25.172Z,60.43
2019-03-06T11:14:40.109Z,60.33
2019-03-06T11:17:56.524Z,58.87
2019-03-06T11:21:11.602Z,58.51
2019-03-06T11:24:29.246Z,57.57
2019-03-06T11:27:44.987Z,56.59
2019-03-06T11:31:02.771Z,56.79
2019-03-06T11:34:19.621Z,56.68
2019-03-06T11:37:36.089Z,57.72
2019-03-06T11:40:51.157Z,57.74
2019-03-06T11:44:07.004Z,57.82
2019-03-06T11:47:21.953Z,58.04
2019-03-06T11:50:40.955Z,57.38
2019-03-06T11:53:53.687Z,57.79
2019-03-06T11:57:07.460Z,57.42
2019-03-06T12:00:32.744Z,54.90
2019-03-06T12:03:49.891Z,54.68
2019-03-06T12:07:05.374Z,52.27
2019-03-06T12:10:19.358Z,52.65
2019-03-06T12:13:34.920Z,52.43
2019-03-06T12:16:48.808Z,50.27
2019-03-06T12:20:08.232Z,50.75
2019-03-06T12:23:18.233Z,51.04
2019-03-06T12:26:37.753Z,50.31
2019-03-06T12:29:51.425Z,50.15
2019-03-06T12:33:05.194Z,50.53
2019-03-06T12:36:19.095Z,51.78
2019-03-06T12:39:33.091Z,50.21
2019-03-06T12:42:46.755Z,47.77
2019-03-06T12:58:19.859Z,46.52
2019-03-06T13:01:33.543Z,44.87
2019-03-06T13:04:47.379Z,44.35
2019-03-06T13:08:01.094Z,43.05
2019-03-06T13:11:14.790Z,41.84
2019-03-06T13:14:30.523Z,44.86
2019-03-06T13:17:44.111Z,43.12
2019-03-06T13:20:57.900Z,44.63
2019-03-06T13:24:12.037Z,43.52
2019-03-06T13:27:25.804Z,44.42
2019-03-06T13:30:39.517Z,43.94
2019-03-06T13:34:05.311Z,42.54
2019-03-06T13:37:19.298Z,40.82
2019-03-06T13:40:33.155Z,39.35
2019-03-06T13:43:47.249Z,39.40
2019-03-06T13:47:01.366Z,40.79
2019-03-06T13:50:15.193Z,39.53
2019-03-06T13:53:29.026Z,41.29
2019-03-06T13:56:42.916Z,39.36
2019-03-06T13:59:56.600Z,36.73
2019-03-06T14:03:10.226Z,36.24
2019-03-06T14:06:23.835Z,34.35
2019-03-06T14:09:37.754Z,33.49
2019-03-06T14:12:51.858Z,35.44
2019-03-06T14:16:06.022Z,32.39
2019-03-06T14:19:19.905Z,31.08
2019-03-06T14:22:33.914Z,31.96
2019-03-06T14:25:48.226Z,34.76
2019-03-06T14:29:02.388Z,33.58
2019-03-06T14:32:16.115Z,35.69
2019-03-06T14:35:29.831Z,35.61
2019-03-06T14:38:43.528Z,36.38
2019-03-06T14:41:59.015Z,36.99
2019-03-06T14:45:13.297Z,37.25
2019-03-06T14:48:27.139Z,37.34
2019-03-06T14:51:40.738Z,38.14
2019-03-06T14:54:57.331Z,37.76
2019-03-06T14:58:11.040Z,38.17
2019-03-06T15:01:24.936Z,37.86
2019-03-06T15:04:40.844Z,38.26
2019-03-06T15:07:54.410Z,39.56
2019-03-06T15:11:08.483Z,39.83
2019-03-06T15:14:23.744Z,38.43
2019-03-06T15:17:37.605Z,39.23
2019-03-06T15:20:51.077Z,38.23
2019-03-06T15:24:05.109Z,38.75
2019-03-06T15:27:18.717Z,41.08
2019-03-06T15:30:32.500Z,40.93
2019-03-06T15:33:46.322Z,42.04
2019-03-06T15:36:59.810Z,40.22
2019-03-06T15:40:17.421Z,40.57
2019-03-06T15:43:31.015Z,41.85
2019-03-06T15:46:45.278Z,41.93
2019-03-06T15:49:58.872Z,43.57
2019-03-06T15:53:13.705Z,44.62
2019-03-06T15:56:27.328Z,43.31
2019-03-06T15:59:40.949Z,43.99
2019-03-06T16:02:55.371Z,45.24
2019-03-06T16:06:08.945Z,45.44
2019-03-06T16:09:22.825Z,46.63
2019-03-06T16:12:36.484Z,47.14
2019-03-06T16:15:50.471Z,47.61
2019-03-06T16:19:04.746Z,48.40
2019-03-06T16:22:18.285Z,48.77
2019-03-06T16:25:36.658Z,49.50
2019-03-06T16:28:47.340Z,50.44
2019-03-06T16:32:00.836Z,52.90
2019-03-06T16:35:14.867Z,53.81
2019-03-06T16:38:28.787Z,56.63
2019-03-06T16:41:42.372Z,58.02
2019-03-06T16:44:55.958Z,58.95
2019-03-06T16:48:09.768Z,60.92
2019-03-06T16:51:23.852Z,59.05
2019-03-06T16:54:37.560Z,60.10
2019-03-06T16:57:51.421Z,59.77
2019-03-06T17:01:05.214Z,60.20
2019-03-06T17:04:19.079Z,59.70
2019-03-06T17:07:33.126Z,59.19
2019-03-06T17:10:46.839Z,58.60
2019-03-06T17:14:02.052Z,58.88
2019-03-06T17:17:16.067Z,59.08
2019-03-06T17:20:29.744Z,58.83
2019-03-06T17:23:43.415Z,59.25
2019-03-06T17:26:57.228Z,59.36
2019-03-06T17:30:16.598Z,58.90
2019-03-06T17:33:30.266Z,59.86
2019-03-06T17:36:43.844Z,60.75
2019-03-06T17:39:57.417Z,61.05
2019-03-06T17:43:12.522Z,61.68
2019-03-06T17:46:26.491Z,62.27
2019-03-06T17:49:40.335Z,61.98
2019-03-06T17:52:54.463Z,63.42
2019-03-06T17:56:08.054Z,63.47
2019-03-06T17:59:21.616Z,64.00
2019-03-06T18:02:35.092Z,64.98
2019-03-06T18:05:48.778Z,65.25
2019-03-06T18:09:04.160Z,64.66
2019-03-06T18:12:17.732Z,65.43
2019-03-06T18:15:31.179Z,65.36
2019-03-06T18:18:45.156Z,65.25
2019-03-06T18:21:58.720Z,66.09
2019-03-06T18:25:13.470Z,65.05
2019-03-06T18:28:27.350Z,65.55
2019-03-06T18:31:41.124Z,64.69
2019-03-06T18:34:55.738Z,65.06
2019-03-06T18:38:09.403Z,64.84
2019-03-06T18:41:22.872Z,63.80
2019-03-06T18:44:36.607Z,62.95
2019-03-06T18:47:50.449Z,62.83
2019-03-06T18:51:03.908Z,62.53
2019-03-06T18:54:17.511Z,62.73
2019-03-06T18:57:30.985Z,62.76
2019-03-06T19:00:44.489Z,63.67
2019-03-06T19:03:57.963Z,63.46
2019-03-06T19:07:12.055Z,63.88
2019-03-06T19:10:26.128Z,64.24
2019-03-06T19:13:39.811Z,63.35
2019-03-06T19:16:53.351Z,63.88
2019-03-06T19:20:07.425Z,64.65
2019-03-06T19:23:21.238Z,65.39
2019-03-06T19:26:37.261Z,65.65
2019-03-06T19:29:50.730Z,66.83
2019-03-06T19:33:04.487Z,67.66
2019-03-06T19:36:18.259Z,67.92
2019-03-06T19:39:31.829Z,69.01
2019-03-06T19:42:45.595Z,69.99
2019-03-06T19:45:59.339Z,71.00
2019-03-06T19:49:13.131Z,72.08
2019-03-06T19:52:26.705Z,73.11
2019-03-06T19:55:40.300Z,71.97
2019-03-06T19:58:53.905Z,72.67
2019-03-06T20:02:07.820Z,72.72
2019-03-06T20:05:22.819Z,71.47
2019-03-06T20:08:37.079Z,71.06
2019-03-06T20:11:50.841Z,71.05
2019-03-06T20:15:04.673Z,71.78
2019-03-06T20:18:18.368Z,72.06
2019-03-06T20:21:32.165Z,72.63
2019-03-06T20:24:46.028Z,73.73
2019-03-06T20:27:59.960Z,73.89
2019-03-06T20:31:13.687Z,73.72
2019-03-06T20:34:27.495Z,73.90
2019-03-06T20:37:41.193Z,74.57
2019-03-06T20:40:54.859Z,74.92
2019-03-06T20:44:08.389Z,75.78
2019-03-06T20:47:21.944Z,76.27
2019-03-06T20:50:35.517Z,76.89
2019-03-06T20:53:48.996Z,77.92
2019-03-06T20:57:02.672Z,78.21
2019-03-06T21:00:18.670Z,78.65
2019-03-06T21:03:32.134Z,78.67
2019-03-06T21:06:45.750Z,78.71
2019-03-06T21:09:59.258Z,78.77
2019-03-06T21:13:12.730Z,78.96
2019-03-06T21:16:26.208Z,79.55
2019-03-06T21:19:39.693Z,79.56
2019-03-06T21:22:53.651Z,79.44
2019-03-06T21:26:07.118Z,79.43
2019-03-06T21:29:20.578Z,79.09
2019-03-06T21:32:34.046Z,79.23
2019-03-06T21:35:47.661Z,79.20
2019-03-06T21:39:01.176Z,79.05
2019-03-06T21:42:14.637Z,79.53
2019-03-06T21:45:28.198Z,79.42
2019-03-06T21:48:41.661Z,79.89
2019-03-06T21:51:55.130Z,79.56
2019-03-06T21:55:10.311Z,79.43
2019-03-06T21:58:23.818Z,80.10
2019-03-06T22:01:37.301Z,80.24
2019-03-06T22:04:50.856Z,79.93
2019-03-06T22:08:04.321Z,80.13
2019-03-06T22:11:17.790Z,81.05
2019-03-06T22:14:31.248Z,80.90
2019-03-06T22:17:44.992Z,80.89
2019-03-06T22:20:58.428Z,80.92
2019-03-06T22:24:12.007Z,81.14
2019-03-06T22:27:25.464Z,81.39
2019-03-06T22:30:39.225Z,81.49
2019-03-06T22:33:52.688Z,81.02
2019-03-06T22:37:06.250Z,78.09
2019-03-06T22:40:20.226Z,75.30
2019-03-06T22:43:33.695Z,71.79
2019-03-06T22:46:47.360Z,71.10
2019-03-06T22:50:00.811Z,68.18
2019-03-06T22:53:14.271Z,67.60
2019-03-06T22:56:28.324Z,65.85
2019-03-06T22:59:41.795Z,68.53
2019-03-06T23:02:55.577Z,67.32
2019-03-06T23:06:09.623Z,66.13
2019-03-06T23:09:23.193Z,66.03
2019-03-06T23:12:36.759Z,66.95
2019-03-06T23:15:50.312Z,67.60
2019-03-06T23:19:04.262Z,67.76
2019-03-06T23:22:17.719Z,66.85
2019-03-06T23:25:31.727Z,68.71
2019-03-06T23:28:45.182Z,67.46
2019-03-06T23:31:58.975Z,67.74
2019-03-06T23:35:12.550Z,67.41
2019-03-06T23:38:26.298Z,68.35
2019-03-06T23:41:39.996Z,68.66
2019-03-06T23:44:53.463Z,67.42
2019-03-06T23:48:07.041Z,67.37
2019-03-06T23:51:26.024Z,66.75
2019-03-06T23:54:39.491Z,67.45
2019-03-06T23:57:53.061Z,66.43
